createdAt,value
2019-05-28T00:01:52.570Z,15.60
2019-05-28T00:04:21.640Z,15.33
2019-05-28T00:06:50.751Z,15.23
2019-05-28T00:09:19.533Z,16.10
2019-05-28T00:11:48.288Z,14.17
2019-05-28T00:14:17.146Z,14.10
2019-05-28T00:16:45.899Z,15.03
2019-05-28T00:19:14.648Z,14.00
2019-05-28T00:21:43.446Z,17.00
2019-05-28T00:24:13.304Z,16.60
2019-05-28T00:26:42.050Z,15.87
2019-05-28T00:29:10.838Z,13.50
2019-05-28T00:31:39.713Z,14.63
2019-05-28T00:34:08.483Z,14.33
2019-05-28T00:36:37.563Z,14.27
2019-05-28T00:39:08.098Z,15.40
2019-05-28T00:41:37.259Z,15.23
2019-05-28T00:44:06.026Z,14.77
2019-05-28T00:46:34.773Z,14.90
2019-05-28T00:49:03.527Z,14.87
2019-05-28T00:51:33.394Z,13.33
2019-05-28T00:54:02.154Z,12.57
2019-05-28T00:56:31.197Z,12.00
2019-05-28T00:59:00.957Z,13.53
2019-05-28T01:01:30.079Z,13.73
2019-05-28T01:03:58.819Z,13.13
2019-05-28T01:06:28.206Z,15.20
2019-05-28T01:08:56.959Z,12.93
2019-05-28T01:11:26.695Z,13.47
2019-05-28T01:13:55.561Z,14.07
2019-05-28T01:16:24.311Z,15.00
2019-05-28T01:18:53.058Z,15.47
2019-05-28T01:21:21.959Z,15.27
2019-05-28T01:23:51.086Z,14.90
2019-05-28T01:26:19.832Z,15.23
2019-05-28T01:28:48.946Z,14.47
2019-05-28T01:31:17.693Z,13.73
2019-05-28T01:33:46.447Z,17.67
2019-05-28T01:36:15.325Z,16.80
2019-05-28T01:38:44.403Z,17.23
2019-05-28T01:41:13.150Z,16.13
2019-05-28T01:43:41.942Z,16.30
2019-05-28T01:46:10.719Z,17.13
2019-05-28T01:48:39.433Z,16.17
2019-05-28T01:51:08.546Z,16.73
2019-05-28T01:53:37.721Z,15.97
2019-05-28T01:56:06.824Z,15.73
2019-05-28T01:58:35.726Z,14.20
2019-05-28T02:01:12.851Z,13.00
2019-05-28T02:03:34.946Z,12.80
2019-05-28T02:06:03.745Z,14.30
2019-05-28T02:08:32.499Z,14.80
2019-05-28T02:11:01.259Z,15.70
2019-05-28T02:13:30.042Z,14.80
2019-05-28T02:15:58.791Z,14.53
2019-05-28T02:18:28.570Z,13.40
2019-05-28T02:20:59.399Z,14.07
2019-05-28T02:23:28.150Z,14.07
2019-05-28T02:25:56.906Z,12.83
2019-05-28T02:28:25.802Z,13.33
2019-05-28T02:30:54.551Z,10.43
2019-05-28T02:33:23.695Z,11.60
2019-05-28T02:35:52.490Z,13.57
2019-05-28T02:38:21.241Z,14.23
2019-05-28T02:40:49.990Z,11.03
2019-05-28T02:43:18.782Z,10.37
2019-05-28T02:45:47.653Z,12.50
2019-05-28T02:48:16.670Z,15.07
2019-05-28T02:50:48.419Z,14.47
2019-05-28T02:53:17.251Z,15.30
2019-05-28T02:55:47.303Z,15.77
2019-05-28T02:58:17.594Z,16.53
2019-05-28T03:00:46.649Z,12.47
2019-05-28T03:03:16.866Z,12.93
2019-05-28T03:05:48.151Z,15.73
2019-05-28T03:08:19.143Z,15.43
2019-05-28T03:11:04.430Z,12.63
2019-05-28T03:13:18.383Z,14.10
2019-05-28T03:15:49.541Z,12.40
2019-05-28T03:18:20.275Z,13.60
2019-05-28T03:20:49.370Z,13.83
2019-05-28T03:23:18.820Z,14.03
2019-05-28T03:25:47.622Z,13.63
2019-05-28T03:28:16.514Z,13.90
2019-05-28T03:30:45.547Z,15.03
2019-05-28T03:33:14.346Z,14.40
2019-05-28T03:35:45.043Z,14.50
2019-05-28T03:38:14.890Z,15.27
2019-05-28T03:40:45.694Z,15.60
2019-05-28T03:43:15.087Z,14.73
2019-05-28T03:45:43.918Z,14.70
2019-05-28T03:48:12.875Z,14.33
2019-05-28T03:50:41.695Z,14.10
2019-05-28T03:53:10.743Z,15.60
2019-05-28T03:55:39.485Z,14.30
2019-05-28T03:58:08.461Z,14.73
2019-05-28T04:00:37.217Z,14.60
2019-05-28T04:03:06.177Z,14.80
2019-05-28T04:05:35.257Z,14.67
2019-05-28T04:08:04.144Z,15.40
2019-05-28T04:10:32.939Z,16.70
2019-05-28T04:13:01.726Z,15.43
2019-05-28T04:15:30.480Z,15.30
2019-05-28T04:17:59.545Z,14.70
2019-05-28T04:20:28.477Z,14.63
2019-05-28T04:22:58.525Z,14.47
2019-05-28T04:25:27.573Z,15.40
2019-05-28T04:27:56.371Z,17.43
2019-05-28T04:30:25.126Z,19.30
2019-05-28T04:32:54.167Z,17.37
2019-05-28T04:35:23.258Z,16.73
2019-05-28T04:37:52.413Z,16.63
2019-05-28T04:40:21.380Z,15.97
2019-05-28T04:42:50.500Z,14.43
2019-05-28T04:45:19.251Z,16.67
2019-05-28T04:47:48.099Z,17.37
2019-05-28T04:50:17.697Z,16.10
2019-05-28T04:52:46.446Z,18.00
2019-05-28T04:55:15.226Z,18.47
2019-05-28T04:57:43.991Z,19.07
2019-05-28T05:00:13.044Z,16.90
2019-05-28T05:02:58.830Z,19.20
2019-05-28T05:05:14.822Z,19.43
2019-05-28T05:07:43.575Z,17.87
2019-05-28T05:10:12.653Z,19.10
2019-05-28T05:12:41.547Z,18.53
2019-05-28T05:15:10.558Z,18.60
2019-05-28T05:17:39.300Z,17.80
2019-05-28T05:20:08.500Z,17.90
2019-05-28T05:22:37.247Z,24.00
2019-05-28T05:25:06.902Z,30.43
2019-05-28T05:27:36.186Z,31.13
2019-05-28T05:30:07.016Z,32.53
2019-05-28T05:32:35.834Z,32.53
2019-05-28T05:35:05.736Z,28.93
2019-05-28T05:37:34.486Z,27.70
2019-05-28T05:40:04.424Z,34.63
2019-05-28T05:42:33.541Z,35.07
2019-05-28T05:45:02.299Z,32.63
2019-05-28T05:47:31.373Z,33.57
2019-05-28T05:50:00.179Z,34.50
2019-05-28T05:52:29.235Z,32.50
2019-05-28T05:54:58.276Z,35.00
2019-05-28T05:57:27.394Z,35.40
2019-05-28T05:59:56.146Z,31.13
2019-05-28T06:02:24.896Z,32.63
2019-05-28T06:04:53.778Z,30.50
2019-05-28T06:07:22.557Z,28.67
2019-05-28T06:09:52.142Z,29.07
2019-05-28T06:12:20.930Z,29.13
2019-05-28T06:14:49.708Z,27.23
2019-05-28T06:17:18.829Z,27.20
2019-05-28T06:19:47.589Z,27.10
2019-05-28T06:22:16.333Z,25.40
2019-05-28T06:24:45.094Z,26.73
2019-05-28T06:27:13.955Z,26.60
2019-05-28T06:29:43.074Z,28.83
2019-05-28T06:32:11.814Z,32.30
2019-05-28T06:34:41.160Z,33.23
2019-05-28T06:37:09.878Z,30.43
2019-05-28T06:39:39.022Z,25.70
2019-05-28T06:42:07.818Z,23.50
2019-05-28T06:44:36.574Z,23.73
2019-05-28T06:47:06.410Z,23.23
2019-05-28T06:49:36.674Z,22.67
2019-05-28T06:52:05.423Z,22.77
2019-05-28T06:54:34.242Z,23.03
2019-05-28T06:57:03.470Z,23.47
2019-05-28T06:59:32.222Z,23.97
2019-05-28T07:02:00.974Z,23.63
2019-05-28T07:04:33.038Z,24.63
2019-05-28T07:07:00.234Z,23.50
2019-05-28T07:09:28.997Z,25.33
2019-05-28T07:11:57.786Z,23.93
2019-05-28T07:14:26.607Z,27.57
2019-05-28T07:16:55.678Z,25.23
2019-05-28T07:19:25.253Z,26.37
2019-05-28T07:21:54.226Z,23.77
2019-05-28T07:24:22.971Z,26.10
2019-05-28T07:26:52.699Z,26.63
2019-05-28T07:29:21.486Z,25.20
2019-05-28T07:31:50.531Z,27.87
2019-05-28T07:34:30.396Z,24.07
2019-05-28T07:36:50.300Z,26.83
2019-05-28T07:39:19.459Z,26.17
2019-05-28T07:41:48.623Z,21.80
2019-05-28T07:44:17.743Z,22.90
2019-05-28T07:46:46.795Z,27.90
2019-05-28T07:49:15.679Z,27.20
2019-05-28T07:51:44.430Z,28.03
2019-05-28T07:54:13.176Z,28.57
2019-05-28T07:56:41.978Z,27.80
2019-05-28T07:59:10.731Z,28.13
2019-05-28T08:01:39.526Z,23.83
2019-05-28T08:04:08.359Z,26.30
2019-05-28T08:06:53.833Z,25.27
2019-05-28T08:09:08.432Z,28.63
2019-05-28T08:11:37.227Z,26.60
2019-05-28T08:14:06.073Z,30.47
2019-05-28T08:16:34.838Z,29.67
2019-05-28T08:19:04.001Z,26.50
2019-05-28T08:21:32.751Z,27.20
2019-05-28T08:24:01.503Z,29.13
2019-05-28T08:26:30.365Z,27.93
2019-05-28T08:28:59.840Z,28.07
2019-05-28T08:31:28.706Z,28.27
2019-05-28T08:33:57.574Z,27.90
2019-05-28T08:36:26.401Z,25.53
2019-05-28T08:38:55.229Z,26.33
2019-05-28T08:41:24.385Z,28.40
2019-05-28T08:43:53.207Z,29.17
2019-05-28T08:46:21.967Z,31.00
2019-05-28T08:48:50.769Z,28.97
2019-05-28T08:51:19.872Z,29.53
2019-05-28T08:53:48.622Z,27.13
2019-05-28T08:56:17.422Z,25.87
2019-05-28T08:58:46.203Z,25.20
2019-05-28T09:01:15.445Z,25.73
2019-05-28T09:03:44.298Z,23.90
2019-05-28T09:06:13.042Z,26.30
2019-05-28T09:08:41.795Z,27.50
2019-05-28T09:11:11.012Z,27.63
2019-05-28T09:13:39.963Z,25.87
2019-05-28T09:16:08.720Z,25.40
2019-05-28T09:18:37.870Z,24.97
2019-05-28T09:21:06.691Z,24.90
2019-05-28T09:23:35.513Z,27.30
2019-05-28T09:26:04.536Z,27.50
2019-05-28T09:28:33.355Z,27.13
2019-05-28T09:31:02.181Z,25.93
2019-05-28T09:33:31.041Z,27.40
2019-05-28T09:36:07.844Z,24.30
2019-05-28T09:38:30.327Z,23.97
2019-05-28T09:40:59.243Z,24.13
2019-05-28T09:43:28.300Z,22.27
2019-05-28T09:45:57.116Z,22.10
2019-05-28T09:48:25.983Z,23.73
2019-05-28T09:50:54.744Z,24.43
2019-05-28T09:53:23.806Z,26.67
2019-05-28T09:55:52.604Z,26.53
2019-05-28T09:58:21.687Z,26.43
2019-05-28T10:00:58.185Z,24.83
2019-05-28T10:03:21.621Z,25.27
2019-05-28T10:06:01.904Z,26.20
2019-05-28T10:08:21.588Z,27.40
2019-05-28T10:10:50.391Z,26.27
2019-05-28T10:13:36.878Z,30.13
2019-05-28T10:15:49.638Z,33.47
2019-05-28T10:18:18.415Z,33.20
2019-05-28T10:20:47.245Z,26.47
2019-05-28T10:23:16.073Z,24.83
2019-05-28T10:25:44.934Z,29.63
2019-05-28T10:28:13.680Z,25.63
2019-05-28T10:30:42.438Z,26.70
2019-05-28T10:33:11.234Z,28.10
2019-05-28T10:35:40.057Z,24.40
2019-05-28T10:38:14.870Z,25.47
2019-05-28T10:40:39.589Z,22.00
2019-05-28T10:43:08.334Z,23.50
2019-05-28T10:45:37.510Z,26.43
2019-05-28T10:48:07.832Z,23.80
2019-05-28T10:50:36.656Z,23.87
2019-05-28T10:53:05.487Z,23.70
2019-05-28T10:55:34.269Z,23.33
2019-05-28T10:58:03.042Z,29.03
2019-05-28T11:00:32.076Z,25.30
2019-05-28T11:03:00.868Z,25.83
2019-05-28T11:05:29.686Z,24.83
2019-05-28T11:07:58.719Z,23.57
2019-05-28T11:10:27.674Z,18.03
2019-05-28T11:12:56.714Z,16.53
2019-05-28T11:15:25.935Z,15.97
2019-05-28T11:17:54.737Z,14.70
2019-05-28T11:20:23.907Z,10.50
2019-05-28T11:22:52.644Z,11.00
2019-05-28T11:25:22.950Z,9.27
2019-05-28T11:27:51.745Z,7.87
2019-05-28T11:30:20.764Z,7.07
2019-05-28T11:32:49.729Z,6.90
2019-05-28T11:35:19.097Z,7.73
2019-05-28T11:37:49.042Z,7.07
2019-05-28T11:40:20.814Z,6.40
2019-05-28T11:42:49.835Z,6.67
2019-05-28T11:45:19.095Z,7.93
2019-05-28T11:47:50.736Z,6.00
2019-05-28T11:50:19.952Z,3.13
2019-05-28T11:52:48.690Z,2.60
2019-05-28T11:55:17.975Z,5.97
2019-05-28T11:57:46.726Z,10.23
2019-05-28T12:00:16.267Z,9.10
2019-05-28T12:02:45.385Z,7.23
2019-05-28T12:05:14.770Z,4.77
2019-05-28T12:07:43.617Z,5.80
2019-05-28T12:10:13.619Z,5.10
2019-05-28T12:12:42.400Z,5.33
2019-05-28T12:15:12.910Z,3.13
2019-05-28T12:17:45.540Z,2.03
2019-05-28T12:20:15.150Z,2.23
2019-05-28T12:22:44.062Z,1.10
2019-05-28T12:25:13.512Z,1.20
2019-05-28T12:27:42.364Z,1.10
2019-05-28T12:30:18.181Z,0.80
2019-05-28T12:32:45.458Z,1.00
2019-05-28T12:35:27.137Z,1.00
2019-05-28T12:37:49.295Z,0.80
2019-05-28T12:40:15.844Z,0.97
2019-05-28T12:42:44.595Z,0.90
2019-05-28T12:45:15.503Z,0.90
2019-05-28T12:47:44.611Z,0.90
2019-05-28T12:50:19.674Z,0.90
2019-05-28T12:52:47.240Z,0.93
2019-05-28T12:55:18.435Z,0.90
2019-05-28T12:57:47.499Z,0.70
2019-05-28T13:00:16.548Z,1.00
2019-05-28T13:02:45.328Z,0.90
2019-05-28T13:05:20.242Z,0.70
2019-05-28T13:08:06.478Z,0.90
2019-05-28T13:10:20.646Z,0.80
2019-05-28T13:12:51.100Z,0.70
2019-05-28T13:15:21.394Z,0.60
2019-05-28T13:17:51.302Z,0.53
2019-05-28T13:20:21.556Z,0.80
2019-05-28T13:22:51.880Z,0.63
2019-05-28T13:25:20.871Z,0.70
2019-05-28T13:27:51.569Z,0.70
2019-05-28T13:30:20.610Z,0.50
2019-05-28T13:32:51.153Z,0.50
2019-05-28T13:35:21.695Z,0.50
2019-05-28T13:37:52.034Z,0.50
2019-05-28T13:40:21.796Z,0.60
2019-05-28T13:42:50.835Z,0.60
2019-05-28T13:45:20.370Z,0.50
2019-05-28T13:47:49.266Z,0.70
2019-05-28T13:50:18.442Z,0.70
2019-05-28T13:52:47.174Z,0.70
2019-05-28T13:55:16.301Z,0.70
2019-05-28T13:57:45.029Z,0.70
2019-05-28T14:00:15.902Z,0.67
2019-05-28T14:02:46.280Z,0.63
2019-05-28T14:05:17.205Z,0.90
2019-05-28T14:07:45.906Z,0.80
2019-05-28T14:10:15.623Z,0.70
2019-05-28T14:12:44.835Z,0.67
2019-05-28T14:15:14.379Z,0.90
2019-05-28T14:17:43.165Z,0.97
2019-05-28T14:20:12.882Z,1.30
2019-05-28T14:22:41.706Z,1.27
2019-05-28T14:25:12.562Z,1.30
2019-05-28T14:27:41.308Z,1.23
2019-05-28T14:30:12.564Z,1.20
2019-05-28T14:32:42.679Z,0.97
2019-05-28T14:35:11.536Z,0.93
2019-05-28T14:37:41.635Z,1.00
2019-05-28T14:40:11.018Z,0.80
2019-05-28T14:42:39.761Z,0.80
2019-05-28T14:45:12.019Z,0.60
2019-05-28T14:47:40.902Z,0.70
2019-05-28T14:50:10.184Z,0.90
2019-05-28T14:52:38.933Z,0.70
2019-05-28T14:55:08.622Z,0.73
2019-05-28T14:57:37.367Z,0.63
2019-05-28T15:00:10.858Z,0.63
2019-05-28T15:02:39.682Z,0.57
2019-05-28T15:05:11.364Z,0.60
2019-05-28T15:07:40.118Z,0.60
2019-05-28T15:10:13.839Z,0.53
2019-05-28T15:12:42.716Z,0.70
2019-05-28T15:15:13.721Z,0.60
2019-05-28T15:17:42.525Z,0.70
2019-05-28T15:20:11.875Z,0.50
2019-05-28T15:22:40.623Z,0.50
2019-05-28T15:25:09.616Z,0.60
2019-05-28T15:27:38.349Z,0.70
2019-05-28T15:30:08.363Z,0.50
2019-05-28T15:32:37.438Z,0.40
2019-05-28T15:35:07.884Z,0.50
2019-05-28T15:37:36.633Z,0.47
2019-05-28T15:40:07.196Z,0.60
2019-05-28T15:42:36.258Z,0.43
2019-05-28T15:45:10.086Z,0.50
2019-05-28T15:47:39.466Z,0.50
2019-05-28T15:50:10.114Z,0.47
2019-05-28T15:52:38.943Z,0.47
2019-05-28T15:55:09.099Z,0.50
2019-05-28T15:57:37.943Z,0.50
2019-05-28T16:00:11.963Z,0.50
2019-05-28T16:02:41.055Z,0.50
2019-05-28T16:05:11.434Z,0.63
2019-05-28T16:07:40.520Z,0.50
2019-05-28T16:10:10.578Z,0.60
2019-05-28T16:12:39.641Z,0.30
2019-05-28T16:15:09.159Z,0.40
2019-05-28T16:17:38.417Z,0.40
2019-05-28T16:20:08.035Z,0.30
2019-05-28T16:22:36.774Z,0.40
2019-05-28T16:25:09.115Z,0.30
2019-05-28T16:27:38.143Z,0.30
2019-05-28T16:30:08.835Z,0.37
2019-05-28T16:32:37.610Z,0.30
2019-05-28T16:35:08.293Z,0.30
2019-05-28T16:37:37.050Z,0.33
2019-05-28T16:40:15.601Z,0.40
2019-05-28T16:42:39.638Z,0.30
2019-05-28T16:45:09.839Z,0.30
2019-05-28T16:47:38.632Z,0.40
2019-05-28T16:50:12.609Z,0.50
2019-05-28T16:52:39.736Z,0.40
2019-05-28T16:55:11.130Z,0.40
2019-05-28T16:57:39.880Z,0.60
2019-05-28T17:00:09.615Z,0.50
2019-05-28T17:02:38.474Z,0.40
2019-05-28T17:05:09.198Z,0.50
2019-05-28T17:07:37.939Z,0.50
2019-05-28T17:10:07.961Z,0.40
2019-05-28T17:12:36.848Z,0.60
2019-05-28T17:15:09.746Z,0.40
2019-05-28T17:17:38.818Z,0.30
2019-05-28T17:20:08.554Z,0.40
2019-05-28T17:22:37.301Z,0.50
2019-05-28T17:25:11.128Z,0.60
2019-05-28T17:27:37.977Z,0.33
2019-05-28T17:30:17.903Z,0.40
2019-05-28T17:32:37.824Z,0.50
2019-05-28T17:35:08.195Z,0.50
2019-05-28T17:37:37.947Z,0.40
2019-05-28T17:40:07.970Z,0.70
2019-05-28T17:42:36.677Z,0.40
2019-05-28T17:45:09.067Z,0.40
2019-05-28T17:47:43.117Z,0.50
2019-05-28T17:50:08.509Z,0.40
2019-05-28T17:52:37.775Z,0.40
2019-05-28T17:55:07.047Z,0.43
2019-05-28T17:57:35.890Z,0.40
2019-05-28T18:00:07.009Z,0.40
2019-05-28T18:02:35.803Z,0.30
2019-05-28T18:05:06.450Z,0.40
2019-05-28T18:07:35.294Z,0.40
2019-05-28T18:10:10.045Z,0.60
2019-05-28T18:12:38.801Z,0.37
2019-05-28T18:15:08.646Z,0.40
2019-05-28T18:17:37.530Z,0.50
2019-05-28T18:20:07.555Z,0.30
2019-05-28T18:22:36.570Z,0.40
2019-05-28T18:25:07.223Z,0.40
2019-05-28T18:27:36.323Z,0.50
2019-05-28T18:30:08.932Z,0.40
2019-05-28T18:32:37.900Z,0.30
2019-05-28T18:35:10.227Z,0.40
2019-05-28T18:37:38.956Z,0.40
2019-05-28T18:40:09.858Z,0.40
2019-05-28T18:42:38.623Z,0.60
2019-05-28T18:45:09.440Z,0.50
2019-05-28T18:47:39.196Z,0.40
2019-05-28T18:50:10.257Z,0.50
2019-05-28T18:52:39.328Z,0.50
2019-05-28T18:55:08.624Z,0.47
2019-05-28T18:57:37.375Z,0.50
2019-05-28T19:00:08.588Z,0.40
2019-05-28T19:02:37.519Z,0.40
2019-05-28T19:05:07.359Z,0.63
2019-05-28T19:07:36.103Z,0.40
2019-05-28T19:10:06.661Z,0.50
2019-05-28T19:12:35.677Z,1.13
2019-05-28T19:15:07.598Z,0.70
2019-05-28T19:17:36.489Z,0.90
2019-05-28T19:20:09.551Z,0.63
2019-05-28T19:22:38.297Z,1.10
2019-05-28T19:25:11.604Z,0.90
2019-05-28T19:27:41.109Z,0.90
2019-05-28T19:30:11.989Z,1.03
2019-05-28T19:32:40.743Z,1.20
2019-05-28T19:35:09.905Z,1.00
2019-05-28T19:37:38.735Z,1.20
2019-05-28T19:40:08.229Z,0.93
2019-05-28T19:42:36.970Z,0.90
2019-05-28T19:45:12.503Z,1.10
2019-05-28T19:47:41.298Z,1.00
2019-05-28T19:50:10.612Z,1.30
2019-05-28T19:52:39.360Z,1.17
2019-05-28T19:55:08.246Z,1.40
2019-05-28T19:57:36.991Z,1.50
2019-05-28T20:00:09.082Z,1.50
2019-05-28T20:02:39.539Z,1.77
2019-05-28T20:05:09.439Z,1.20
2019-05-28T20:07:38.182Z,1.37
2019-05-28T20:10:07.456Z,1.23
2019-05-28T20:12:36.205Z,1.20
2019-05-28T20:15:09.125Z,1.50
2019-05-28T20:17:38.687Z,1.10
2019-05-28T20:20:10.751Z,1.20
2019-05-28T20:22:39.850Z,1.27
2019-05-28T20:25:09.037Z,1.50
2019-05-28T20:27:37.784Z,1.27
2019-05-28T20:30:11.464Z,1.20
2019-05-28T20:32:40.759Z,1.63
2019-05-28T20:35:10.212Z,1.33
2019-05-28T20:37:39.056Z,1.17
2019-05-28T20:40:08.543Z,1.17
2019-05-28T20:42:38.063Z,1.20
2019-05-28T20:45:08.776Z,1.10
2019-05-28T20:47:37.562Z,0.90
2019-05-28T20:50:09.401Z,1.00
2019-05-28T20:52:38.558Z,1.00
2019-05-28T20:55:07.950Z,1.03
2019-05-28T20:57:36.775Z,1.10
2019-05-28T21:00:07.413Z,1.17
2019-05-28T21:02:36.205Z,1.10
2019-05-28T21:05:07.695Z,1.00
2019-05-28T21:07:36.442Z,1.03
2019-05-28T21:10:06.998Z,1.17
2019-05-28T21:12:43.714Z,0.70
2019-05-28T21:15:09.775Z,1.10
2019-05-28T21:17:38.577Z,1.00
2019-05-28T21:20:08.581Z,1.00
2019-05-28T21:22:37.329Z,1.23
2019-05-28T21:25:09.729Z,1.00
2019-05-28T21:27:38.785Z,1.20
2019-05-28T21:30:08.039Z,1.20
2019-05-28T21:32:37.486Z,1.13
2019-05-28T21:35:06.526Z,1.00
2019-05-28T21:37:35.270Z,1.20
2019-05-28T21:40:05.159Z,0.90
2019-05-28T21:42:33.975Z,0.83
2019-05-28T21:45:02.829Z,1.10
2019-05-28T21:47:31.602Z,0.90
2019-05-28T21:50:01.056Z,1.10
2019-05-28T21:52:30.664Z,1.00
2019-05-28T21:54:59.451Z,1.00
2019-05-28T21:57:28.194Z,1.17
2019-05-28T21:59:57.913Z,1.10
2019-05-28T22:02:26.750Z,1.20
2019-05-28T22:04:55.514Z,2.07
2019-05-28T22:07:24.242Z,2.10
2019-05-28T22:09:53.781Z,1.77
2019-05-28T22:12:22.982Z,1.70
2019-05-28T22:14:51.726Z,1.33
2019-05-28T22:17:20.514Z,1.33
2019-05-28T22:19:49.258Z,1.40
2019-05-28T22:22:18.002Z,1.83
2019-05-28T22:24:46.798Z,1.60
2019-05-28T22:27:15.538Z,1.50
2019-05-28T22:29:45.822Z,1.43
2019-05-28T22:32:14.610Z,1.50
2019-05-28T22:34:43.358Z,2.13
2019-05-28T22:37:12.419Z,1.80
2019-05-28T22:39:41.206Z,1.80
2019-05-28T22:42:09.953Z,1.53
2019-05-28T22:44:38.985Z,2.07
2019-05-28T22:47:07.767Z,2.10
2019-05-28T22:49:36.507Z,1.90
2019-05-28T22:52:06.050Z,1.60
2019-05-28T22:54:34.931Z,1.70
2019-05-28T22:57:05.189Z,1.93
2019-05-28T22:59:36.526Z,2.20
2019-05-28T23:02:05.422Z,2.37
2019-05-28T23:04:34.451Z,2.37
2019-05-28T23:07:03.488Z,1.97
2019-05-28T23:09:32.366Z,1.90
2019-05-28T23:12:01.624Z,2.50
2019-05-28T23:14:30.351Z,1.87
2019-05-28T23:17:00.228Z,2.30
2019-05-28T23:19:29.055Z,2.33
2019-05-28T23:21:57.915Z,2.10
2019-05-28T23:24:26.702Z,2.70
2019-05-28T23:26:55.472Z,2.20
2019-05-28T23:29:24.206Z,2.13
2019-05-28T23:31:53.347Z,2.30
2019-05-28T23:34:22.183Z,2.70
2019-05-28T23:36:50.932Z,2.43
2019-05-28T23:39:19.758Z,2.30
2019-05-28T23:41:48.506Z,2.23
2019-05-28T23:44:17.246Z,2.20
2019-05-28T23:46:46.084Z,2.17
2019-05-28T23:49:14.841Z,2.00
2019-05-28T23:51:44.117Z,2.27
2019-05-28T23:54:13.890Z,2.30
2019-05-28T23:56:42.674Z,2.13
2019-05-28T23:59:11.824Z,2.57
